createdAt,value
2018-03-22T00:00:26.914Z,1021.27
2018-03-22T00:01:27.402Z,1021.32
2018-03-22T00:02:26.852Z,1021.28
2018-03-22T00:03:27.340Z,1021.24
2018-03-22T00:04:26.847Z,1021.20
2018-03-22T00:05:27.372Z,1021.18
2018-03-22T00:06:27.469Z,1021.16
2018-03-22T00:07:26.815Z,1021.11
2018-03-22T00:08:27.480Z,1021.10
2018-03-22T00:09:26.761Z,1021.09
2018-03-22T00:10:27.239Z,1021.10
2018-03-22T00:11:26.680Z,1021.08
2018-03-22T00:13:11.801Z,1021.02
2018-03-22T00:14:12.347Z,1021.02
2018-03-22T00:15:11.895Z,1020.97
2018-03-22T00:16:12.315Z,1020.90
2018-03-22T00:17:34.105Z,1020.89
2018-03-22T00:18:34.420Z,1020.90
2018-03-22T00:19:57.185Z,1020.86
2018-03-22T00:20:57.391Z,1020.89
2018-03-22T00:21:57.823Z,1020.87
2018-03-22T00:22:57.053Z,1020.86
2018-03-22T00:23:57.713Z,1020.86
2018-03-22T00:24:57.464Z,1020.86
2018-03-22T00:25:57.708Z,1020.76
2018-03-22T00:26:56.940Z,1020.76
2018-03-22T00:27:57.232Z,1020.80
2018-03-22T00:28:57.531Z,1020.82
2018-03-22T00:29:58.059Z,1020.75
2018-03-22T00:30:57.554Z,1020.72
2018-03-22T00:31:57.101Z,1020.71
2018-03-22T00:32:57.625Z,1020.76
2018-03-22T00:33:56.888Z,1020.77
2018-03-22T00:34:57.459Z,1020.76
2018-03-22T00:35:57.734Z,1020.77
2018-03-22T00:36:57.008Z,1020.84
2018-03-22T00:37:57.320Z,1020.87
2018-03-22T00:38:58.779Z,1020.86
2018-03-22T00:39:57.113Z,1020.95
2018-03-22T00:40:57.008Z,1020.92
2018-03-22T00:41:57.432Z,1020.96
2018-03-22T00:42:57.841Z,1020.92
2018-03-22T00:43:57.289Z,1021.01
2018-03-22T00:44:59.155Z,1020.99
2018-03-22T00:45:57.123Z,1021.05
2018-03-22T00:47:21.938Z,1020.95
2018-03-22T00:48:22.444Z,1021.04
2018-03-22T00:49:22.259Z,1020.99
2018-03-22T00:50:22.186Z,1021.00
2018-03-22T00:51:22.354Z,1020.94
2018-03-22T00:52:23.023Z,1020.91
2018-03-22T00:53:21.854Z,1020.86
2018-03-22T00:54:22.164Z,1020.83
2018-03-22T00:55:22.462Z,1020.85
2018-03-22T00:56:22.023Z,1020.83
2018-03-22T00:57:22.256Z,1020.84
2018-03-22T00:58:22.602Z,1020.80
2018-03-22T00:59:21.428Z,1020.77
2018-03-22T01:00:22.117Z,1020.74
2018-03-22T01:01:22.703Z,1020.69
2018-03-22T01:02:21.665Z,1020.62
2018-03-22T01:04:07.111Z,1020.52
2018-03-22T01:05:06.969Z,1020.53
2018-03-22T01:06:07.427Z,1020.48
2018-03-22T01:07:06.839Z,1020.46
2018-03-22T01:08:07.390Z,1020.44
2018-03-22T01:09:07.115Z,1020.34
2018-03-22T01:10:06.675Z,1020.27
2018-03-22T01:11:06.867Z,1020.26
2018-03-22T01:12:07.230Z,1020.24
2018-03-22T01:13:06.667Z,1020.17
2018-03-22T01:14:29.237Z,1020.15
2018-03-22T01:15:29.757Z,1020.08
2018-03-22T01:16:30.481Z,1020.10
2018-03-22T01:17:30.082Z,1020.10
2018-03-22T01:18:29.558Z,1020.08
2018-03-22T01:20:14.201Z,1019.98
2018-03-22T01:21:14.427Z,1019.92
2018-03-22T01:22:15.129Z,1019.82
2018-03-22T01:23:14.256Z,1019.81
2018-03-22T01:24:14.717Z,1019.80
2018-03-22T01:25:15.191Z,1019.77
2018-03-22T01:26:14.684Z,1019.75
2018-03-22T01:27:15.452Z,1019.74
2018-03-22T01:28:14.916Z,1019.75
2018-03-22T01:29:13.812Z,1019.70
2018-03-22T01:30:15.313Z,1019.66
2018-03-22T01:31:14.761Z,1019.61
2018-03-22T01:32:15.032Z,1019.56
2018-03-22T01:33:14.560Z,1019.51
2018-03-22T01:34:14.440Z,1019.50
2018-03-22T01:35:37.219Z,1019.48
2018-03-22T01:36:37.737Z,1019.48
2018-03-22T01:37:37.416Z,1019.48
2018-03-22T01:38:37.438Z,1019.47
2018-03-22T01:40:00.472Z,1019.47
2018-03-22T01:41:01.030Z,1019.46
2018-03-22T01:42:01.550Z,1019.42
2018-03-22T01:43:01.051Z,1019.43
2018-03-22T01:44:01.436Z,1019.42
2018-03-22T01:45:00.442Z,1019.41
2018-03-22T01:46:00.884Z,1019.36
2018-03-22T01:47:00.590Z,1019.41
2018-03-22T01:48:01.141Z,1019.33
2018-03-22T01:49:01.409Z,1019.29
2018-03-22T01:50:00.832Z,1019.30
2018-03-22T01:51:01.473Z,1019.25
2018-03-22T01:52:00.878Z,1019.16
2018-03-22T01:53:23.475Z,1019.22
2018-03-22T01:54:23.212Z,1019.16
2018-03-22T01:55:23.995Z,1019.22
2018-03-22T01:56:24.639Z,1019.19
2018-03-22T01:57:23.855Z,1019.22
2018-03-22T01:58:23.718Z,1019.18
2018-03-22T01:59:23.938Z,1019.16
2018-03-22T02:00:24.114Z,1019.13
2018-03-22T02:01:23.743Z,1019.11
2018-03-22T02:02:24.023Z,1019.14
2018-03-22T02:03:24.519Z,1019.09
2018-03-22T02:04:24.081Z,1019.05
2018-03-22T02:05:24.505Z,1019.05
2018-03-22T02:06:23.737Z,1019.05
2018-03-22T02:07:24.153Z,1019.02
2018-03-22T02:08:23.911Z,1019.00
2018-03-22T02:09:23.890Z,1018.96
2018-03-22T02:10:23.578Z,1018.92
2018-03-22T02:11:23.843Z,1018.94
2018-03-22T02:12:23.694Z,1018.88
2018-03-22T02:13:23.451Z,1018.85
2018-03-22T02:14:23.449Z,1018.84
2018-03-22T02:15:23.450Z,1018.76
2018-03-22T02:16:23.616Z,1018.68
2018-03-22T02:17:24.151Z,1018.73
2018-03-22T02:18:24.479Z,1018.62
2018-03-22T02:19:23.824Z,1018.59
2018-03-22T02:20:24.208Z,1018.61
2018-03-22T02:21:24.340Z,1018.54
2018-03-22T02:22:23.240Z,1018.48
2018-03-22T02:23:24.595Z,1018.45
2018-03-22T02:24:23.510Z,1018.46
2018-03-22T02:25:24.074Z,1018.38
2018-03-22T02:26:45.772Z,1018.41
2018-03-22T02:27:45.595Z,1018.36
2018-03-22T02:28:45.809Z,1018.34
2018-03-22T02:29:46.081Z,1018.29
2018-03-22T02:30:46.549Z,1018.27
2018-03-22T02:31:45.519Z,1018.27
2018-03-22T02:32:45.341Z,1018.15
2018-03-22T02:33:45.943Z,1018.14
2018-03-22T02:34:46.257Z,1018.15
2018-03-22T02:35:45.164Z,1018.15
2018-03-22T02:36:46.659Z,1018.08
2018-03-22T02:38:07.742Z,1018.07
2018-03-22T02:39:07.560Z,1018.05
2018-03-22T02:40:08.209Z,1018.00
2018-03-22T02:41:08.432Z,1017.90
2018-03-22T02:42:07.863Z,1017.94
2018-03-22T02:43:08.402Z,1017.88
2018-03-22T02:44:07.857Z,1017.85
2018-03-22T02:45:08.399Z,1017.83
2018-03-22T02:46:07.273Z,1017.71
2018-03-22T02:47:08.695Z,1017.75
2018-03-22T02:48:07.615Z,1017.81
2018-03-22T02:49:29.951Z,1017.73
2018-03-22T02:50:30.468Z,1017.73
2018-03-22T02:51:30.852Z,1017.70
2018-03-22T02:52:29.685Z,1017.66
2018-03-22T02:53:30.280Z,1017.58
2018-03-22T02:54:29.939Z,1017.60
2018-03-22T02:55:30.245Z,1017.52
2018-03-22T02:56:30.648Z,1017.51
2018-03-22T02:57:31.289Z,1017.48
2018-03-22T02:58:30.025Z,1017.53
2018-03-22T02:59:30.205Z,1017.46
2018-03-22T03:00:30.664Z,1017.46
2018-03-22T03:01:55.167Z,1017.39
2018-03-22T03:02:55.766Z,1017.41
2018-03-22T03:03:54.706Z,1017.35
2018-03-22T03:04:55.223Z,1017.37
2018-03-22T03:06:17.967Z,1017.33
2018-03-22T03:07:18.105Z,1017.29
2018-03-22T03:08:18.026Z,1017.30
2018-03-22T03:09:18.225Z,1017.28
2018-03-22T03:10:20.043Z,1017.25
2018-03-22T03:11:18.339Z,1017.20
2018-03-22T03:12:18.858Z,1017.16
2018-03-22T03:13:18.212Z,1017.19
2018-03-22T03:14:18.450Z,1017.12
2018-03-22T03:16:09.441Z,1017.10
2018-03-22T03:17:18.128Z,1017.14
2018-03-22T03:18:18.123Z,1017.12
2018-03-22T03:19:18.802Z,1017.05
2018-03-22T03:20:18.486Z,1017.08
2018-03-22T03:21:18.103Z,1017.06
2018-03-22T03:22:18.397Z,1017.08
2018-03-22T03:23:18.120Z,1017.01
2018-03-22T03:24:17.932Z,1016.98
2018-03-22T03:25:40.736Z,1016.97
2018-03-22T03:27:03.112Z,1016.97
2018-03-22T03:28:03.497Z,1016.89
2018-03-22T03:29:03.862Z,1016.93
2018-03-22T03:30:03.291Z,1016.89
2018-03-22T03:31:03.319Z,1016.87
2018-03-22T03:32:03.160Z,1016.88
2018-03-22T03:33:25.050Z,1016.87
2018-03-22T03:34:26.010Z,1016.83
2018-03-22T03:35:26.488Z,1016.87
2018-03-22T03:36:25.867Z,1016.82
2018-03-22T03:37:25.849Z,1016.80
2018-03-22T03:38:28.624Z,1016.86
2018-03-22T03:39:25.990Z,1016.79
2018-03-22T03:40:26.327Z,1016.79
2018-03-22T03:41:47.110Z,1016.78
2018-03-22T03:42:46.819Z,1016.77
2018-03-22T03:43:46.638Z,1016.76
2018-03-22T03:44:47.896Z,1016.79
2018-03-22T03:45:46.620Z,1016.75
2018-03-22T03:46:47.974Z,1016.69
2018-03-22T03:47:46.814Z,1016.68
2018-03-22T03:49:52.882Z,1016.62
2018-03-22T03:50:54.307Z,1016.62
2018-03-22T03:51:53.771Z,1016.59
2018-03-22T03:52:54.261Z,1016.56
2018-03-22T03:53:53.964Z,1016.59
2018-03-22T03:54:54.402Z,1016.56
2018-03-22T03:55:53.789Z,1016.52
2018-03-22T03:57:15.723Z,1016.53
2018-03-22T03:58:16.316Z,1016.50
2018-03-22T03:59:38.576Z,1016.52
2018-03-22T04:00:38.622Z,1016.48
2018-03-22T04:02:00.724Z,1016.47
2018-03-22T04:03:01.607Z,1016.41
2018-03-22T04:04:02.112Z,1016.36
2018-03-22T04:06:54.008Z,1016.32
2018-03-22T04:07:54.518Z,1016.26
2018-03-22T04:08:54.973Z,1016.26
2018-03-22T04:09:53.964Z,1016.24
2018-03-22T04:10:53.877Z,1016.24
2018-03-22T04:12:15.769Z,1016.21
2018-03-22T04:13:16.493Z,1016.23
2018-03-22T04:14:38.433Z,1016.18
2018-03-22T04:15:38.764Z,1016.22
2018-03-22T04:17:01.853Z,1016.20
2018-03-22T04:18:02.442Z,1016.16
2018-03-22T04:19:23.512Z,1016.13
2018-03-22T04:20:24.197Z,1016.13
2018-03-22T04:21:23.100Z,1016.09
2018-03-22T04:22:24.423Z,1016.08
2018-03-22T04:23:23.473Z,1016.11
2018-03-22T04:24:23.864Z,1016.04
2018-03-22T04:25:24.128Z,1016.03
2018-03-22T04:26:45.120Z,1016.03
2018-03-22T04:27:46.466Z,1015.98
2018-03-22T04:28:45.899Z,1015.92
2018-03-22T04:29:46.403Z,1015.96
2018-03-22T04:30:45.691Z,1016.00
2018-03-22T04:31:45.994Z,1015.88
2018-03-22T04:32:46.551Z,1015.89
2018-03-22T04:33:46.332Z,1015.93
2018-03-22T04:34:45.687Z,1015.90
2018-03-22T04:35:46.221Z,1015.92
2018-03-22T04:36:46.661Z,1015.90
2018-03-22T04:37:46.024Z,1015.83
2018-03-22T04:39:08.253Z,1015.81
2018-03-22T04:40:09.135Z,1015.83
2018-03-22T04:41:31.212Z,1015.76
2018-03-22T04:42:53.308Z,1015.76
2018-03-22T04:43:53.120Z,1015.73
2018-03-22T04:44:52.929Z,1015.70
2018-03-22T04:45:54.242Z,1015.70
2018-03-22T04:46:53.762Z,1015.68
2018-03-22T04:47:54.061Z,1015.67
2018-03-22T04:48:52.910Z,1015.63
2018-03-22T04:49:53.204Z,1015.63
2018-03-22T04:50:53.285Z,1015.63
2018-03-22T04:51:53.926Z,1015.57
2018-03-22T04:52:54.411Z,1015.55
2018-03-22T04:53:54.081Z,1015.56
2018-03-22T04:55:15.141Z,1015.49
2018-03-22T04:56:15.485Z,1015.48
2018-03-22T04:57:37.883Z,1015.47
2018-03-22T04:58:37.736Z,1015.48
2018-03-22T04:59:38.197Z,1015.54
2018-03-22T05:01:00.803Z,1015.44
2018-03-22T05:02:01.322Z,1015.44
2018-03-22T05:03:00.830Z,1015.39
2018-03-22T05:04:00.681Z,1015.40
2018-03-22T05:05:00.419Z,1015.39
2018-03-22T05:06:00.314Z,1015.38
2018-03-22T05:07:00.334Z,1015.35
2018-03-22T05:08:01.814Z,1015.32
2018-03-22T05:09:00.697Z,1015.36
2018-03-22T05:10:01.252Z,1015.32
2018-03-22T05:11:01.121Z,1015.28
2018-03-22T05:12:01.555Z,1015.26
2018-03-22T05:13:00.975Z,1015.22
2018-03-22T05:14:45.201Z,1015.17
2018-03-22T05:15:45.902Z,1015.07
2018-03-22T05:16:45.596Z,1015.05
2018-03-22T05:17:46.066Z,1015.05
2018-03-22T05:18:45.750Z,1015.01
2018-03-22T05:19:44.814Z,1015.03
2018-03-22T05:21:07.018Z,1014.97
2018-03-22T05:22:08.163Z,1014.99
2018-03-22T05:23:07.511Z,1014.99
2018-03-22T05:24:07.860Z,1015.05
2018-03-22T05:25:07.732Z,1015.00
2018-03-22T05:26:08.124Z,1015.03
2018-03-22T05:27:28.474Z,1015.05
2018-03-22T05:28:52.196Z,1015.03
2018-03-22T05:29:52.664Z,1015.01
2018-03-22T05:30:52.941Z,1015.04
2018-03-22T05:31:52.387Z,1014.95
2018-03-22T05:32:52.846Z,1014.91
2018-03-22T05:33:51.803Z,1014.91
2018-03-22T05:34:52.306Z,1014.88
2018-03-22T05:35:52.979Z,1014.88
2018-03-22T05:36:52.522Z,1014.90
2018-03-22T05:37:53.150Z,1014.91
2018-03-22T05:38:52.627Z,1014.89
2018-03-22T05:39:51.950Z,1014.88
2018-03-22T05:40:52.454Z,1014.91
2018-03-22T05:41:52.939Z,1014.93
2018-03-22T05:42:51.822Z,1014.89
2018-03-22T05:43:52.304Z,1014.90
2018-03-22T05:44:52.704Z,1014.85
2018-03-22T05:45:52.267Z,1014.85
2018-03-22T05:47:14.246Z,1014.80
2018-03-22T05:48:15.876Z,1014.73
2018-03-22T05:49:15.478Z,1014.78
2018-03-22T05:50:15.013Z,1014.81
2018-03-22T05:51:14.881Z,1014.77
2018-03-22T05:52:15.212Z,1014.80
2018-03-22T05:53:15.200Z,1014.79
2018-03-22T05:54:37.765Z,1014.79
2018-03-22T05:55:38.412Z,1014.77
2018-03-22T05:56:38.047Z,1014.76
2018-03-22T05:57:38.573Z,1014.75
2018-03-22T05:58:38.158Z,1014.72
2018-03-22T05:59:39.077Z,1014.70
2018-03-22T06:00:38.482Z,1014.65
2018-03-22T06:01:59.687Z,1014.69
2018-03-22T06:03:00.203Z,1014.65
2018-03-22T06:04:00.755Z,1014.70
2018-03-22T06:05:00.405Z,1014.68
2018-03-22T06:05:59.574Z,1014.72
2018-03-22T06:06:59.742Z,1014.62
2018-03-22T06:08:00.236Z,1014.68
2018-03-22T06:09:00.113Z,1014.58
2018-03-22T06:10:00.732Z,1014.67
2018-03-22T06:10:59.934Z,1014.58
2018-03-22T06:12:00.295Z,1014.59
2018-03-22T06:13:00.034Z,1014.54
2018-03-22T06:14:00.552Z,1014.62
2018-03-22T06:14:59.600Z,1014.60
2018-03-22T06:15:59.886Z,1014.65
2018-03-22T06:17:00.372Z,1014.57
2018-03-22T06:17:59.253Z,1014.53
2018-03-22T06:19:00.004Z,1014.54
2018-03-22T06:20:00.657Z,1014.54
2018-03-22T06:20:59.666Z,1014.52
2018-03-22T06:22:43.535Z,1014.48
2018-03-22T06:23:44.263Z,1014.47
2018-03-22T06:24:43.166Z,1014.43
2018-03-22T06:25:43.795Z,1014.41
2018-03-22T06:26:43.926Z,1014.41
2018-03-22T06:27:44.592Z,1014.30
2018-03-22T06:28:44.410Z,1014.31
2018-03-22T06:29:43.969Z,1014.40
2018-03-22T06:30:43.679Z,1014.36
2018-03-22T06:31:50.202Z,1014.36
2018-03-22T06:32:47.325Z,1014.29
2018-03-22T06:33:49.287Z,1014.29
2018-03-22T06:34:46.901Z,1014.37
2018-03-22T06:35:44.688Z,1014.31
2018-03-22T06:36:44.247Z,1014.37
2018-03-22T06:37:43.809Z,1014.36
2018-03-22T06:38:44.456Z,1014.36
2018-03-22T06:39:43.551Z,1014.27
2018-03-22T06:40:44.320Z,1014.20
2018-03-22T06:41:43.633Z,1014.22
2018-03-22T06:42:44.549Z,1014.17
2018-03-22T06:43:44.469Z,1014.16
2018-03-22T06:44:44.016Z,1014.22
2018-03-22T06:45:43.645Z,1014.22
2018-03-22T06:46:44.289Z,1014.26
2018-03-22T06:47:43.278Z,1014.28
2018-03-22T06:48:43.859Z,1014.13
2018-03-22T06:49:44.599Z,1014.21
2018-03-22T06:50:43.524Z,1014.13
2018-03-22T06:51:43.579Z,1014.06
2018-03-22T06:52:44.366Z,1014.14
2018-03-22T06:53:43.830Z,1014.12
2018-03-22T06:54:43.780Z,1014.19
2018-03-22T06:55:43.720Z,1014.16
2018-03-22T06:56:44.319Z,1014.12
2018-03-22T06:57:43.673Z,1014.13
2018-03-22T06:58:44.432Z,1014.12
2018-03-22T06:59:43.992Z,1014.18
2018-03-22T07:00:44.920Z,1014.05
2018-03-22T07:01:43.859Z,1014.07
2018-03-22T07:02:43.825Z,1014.06
2018-03-22T07:03:44.571Z,1014.07
2018-03-22T07:04:44.181Z,1014.06
2018-03-22T07:05:43.151Z,1014.05
2018-03-22T07:06:43.757Z,1014.04
2018-03-22T07:07:44.272Z,1014.05
2018-03-22T07:08:43.275Z,1014.04
2018-03-22T07:09:44.047Z,1014.08
2018-03-22T07:10:43.165Z,1013.99
2018-03-22T07:11:44.179Z,1014.03
2018-03-22T07:12:43.810Z,1014.00
2018-03-22T07:13:44.338Z,1014.01
2018-03-22T07:14:43.302Z,1014.03
2018-03-22T07:15:43.785Z,1013.93
2018-03-22T07:16:44.545Z,1013.88
2018-03-22T07:17:44.171Z,1013.86
2018-03-22T07:18:43.751Z,1013.89
2018-03-22T07:19:43.729Z,1013.90
2018-03-22T07:20:44.059Z,1013.88
2018-03-22T07:21:43.770Z,1013.92
2018-03-22T07:22:44.380Z,1013.85
2018-03-22T07:23:43.949Z,1013.88
2018-03-22T07:24:43.460Z,1013.86
2018-03-22T07:25:44.236Z,1013.86
2018-03-22T07:26:43.852Z,1013.87
2018-03-22T07:27:44.658Z,1013.88
2018-03-22T07:29:09.325Z,1013.86
2018-03-22T07:30:32.490Z,1013.84
2018-03-22T07:31:32.520Z,1013.83
2018-03-22T07:32:33.010Z,1013.83
2018-03-22T07:33:32.413Z,1013.82
2018-03-22T07:34:55.569Z,1013.84
2018-03-22T07:36:18.438Z,1013.84
2018-03-22T07:37:18.688Z,1013.82
2018-03-22T07:38:18.704Z,1013.81
2018-03-22T07:39:40.466Z,1013.72
2018-03-22T07:41:03.069Z,1013.70
2018-03-22T07:42:03.069Z,1013.72
2018-03-22T07:43:03.678Z,1013.69
2018-03-22T07:44:26.059Z,1013.73
2018-03-22T07:45:26.823Z,1013.71
2018-03-22T07:46:26.026Z,1013.74
2018-03-22T07:47:26.340Z,1013.78
2018-03-22T07:48:26.770Z,1013.74
2018-03-22T07:49:25.849Z,1013.74
2018-03-22T07:50:25.745Z,1013.68
2018-03-22T07:51:26.231Z,1013.63
2018-03-22T07:52:26.737Z,1013.59
2018-03-22T07:53:26.220Z,1013.52
2018-03-22T07:55:10.943Z,1013.50
2018-03-22T07:56:11.994Z,1013.48
2018-03-22T07:57:33.464Z,1013.49
2018-03-22T07:58:34.218Z,1013.50
2018-03-22T07:59:34.864Z,1013.58
2018-03-22T08:00:34.434Z,1013.57
2018-03-22T08:01:33.736Z,1013.57
2018-03-22T08:03:17.840Z,1013.54
2018-03-22T08:04:18.958Z,1013.50
2018-03-22T08:05:17.880Z,1013.54
2018-03-22T08:06:18.434Z,1013.48
2018-03-22T08:07:18.639Z,1013.45
2018-03-22T08:08:18.765Z,1013.52
2018-03-22T08:09:19.319Z,1013.50
2018-03-22T08:10:18.973Z,1013.57
2018-03-22T08:11:18.464Z,1013.41
2018-03-22T08:12:19.058Z,1013.52
2018-03-22T08:13:18.584Z,1013.51
2018-03-22T08:14:19.202Z,1013.49
2018-03-22T08:15:40.473Z,1013.56
2018-03-22T08:16:40.685Z,1013.56
2018-03-22T08:17:41.229Z,1013.52
2018-03-22T08:18:40.741Z,1013.55
2018-03-22T08:20:02.890Z,1013.58
2018-03-22T08:21:03.345Z,1013.64
2018-03-22T08:22:03.072Z,1013.62
2018-03-22T08:23:03.714Z,1013.54
2018-03-22T08:24:03.155Z,1013.56
2018-03-22T08:25:03.607Z,1013.51
2018-03-22T08:26:03.361Z,1013.44
2018-03-22T08:27:03.938Z,1013.51
2018-03-22T08:28:25.228Z,1013.56
2018-03-22T08:29:25.294Z,1013.51
2018-03-22T08:30:25.967Z,1013.54
2018-03-22T08:31:25.957Z,1013.57
2018-03-22T08:32:48.153Z,1013.52
2018-03-22T08:33:48.675Z,1013.52
2018-03-22T08:34:49.496Z,1013.46
2018-03-22T08:35:48.942Z,1013.52
2018-03-22T08:36:49.583Z,1013.42
2018-03-22T08:37:49.138Z,1013.41
2018-03-22T08:38:48.487Z,1013.37
2018-03-22T08:39:49.880Z,1013.27
2018-03-22T08:40:49.619Z,1013.42
2018-03-22T08:41:49.165Z,1013.41
2018-03-22T08:43:54.623Z,1013.33
2018-03-22T08:44:55.468Z,1013.36
2018-03-22T08:45:56.045Z,1013.43
2018-03-22T08:46:56.042Z,1013.44
2018-03-22T08:47:55.651Z,1013.43
2018-03-22T08:48:55.288Z,1013.48
2018-03-22T08:49:55.394Z,1013.40
2018-03-22T08:50:55.162Z,1013.39
2018-03-22T08:51:55.570Z,1013.36
2018-03-22T08:52:55.222Z,1013.40
2018-03-22T08:53:55.805Z,1013.40
2018-03-22T08:54:55.401Z,1013.36
2018-03-22T08:55:54.752Z,1013.37
2018-03-22T08:56:55.112Z,1013.40
2018-03-22T08:57:55.340Z,1013.29
2018-03-22T08:58:55.647Z,1013.27
2018-03-22T08:59:55.399Z,1013.27
2018-03-22T09:00:55.119Z,1013.30
2018-03-22T09:02:18.323Z,1013.33
2018-03-22T09:03:18.765Z,1013.28
2018-03-22T09:04:18.471Z,1013.28
2018-03-22T09:05:18.958Z,1013.30
2018-03-22T09:06:18.348Z,1013.32
2018-03-22T09:07:40.954Z,1013.35
2018-03-22T09:08:41.453Z,1013.27
2018-03-22T09:09:41.337Z,1013.26
2018-03-22T09:10:42.074Z,1013.24
2018-03-22T09:11:41.759Z,1013.27
2018-03-22T09:12:40.941Z,1013.26
2018-03-22T09:14:25.992Z,1013.18
2018-03-22T09:15:26.326Z,1013.18
2018-03-22T09:16:26.642Z,1013.26
2018-03-22T09:17:26.298Z,1013.27
2018-03-22T09:18:48.961Z,1013.30
2018-03-22T09:19:49.353Z,1013.30
2018-03-22T09:20:49.158Z,1013.30
2018-03-22T09:21:49.866Z,1013.28
2018-03-22T09:22:50.037Z,1013.29
2018-03-22T09:23:49.874Z,1013.29
2018-03-22T09:24:49.550Z,1013.24
2018-03-22T09:25:48.980Z,1013.24
2018-03-22T09:27:12.044Z,1013.25
2018-03-22T09:28:12.566Z,1013.21
2018-03-22T09:29:12.355Z,1013.18
2018-03-22T09:30:34.705Z,1013.21
2018-03-22T09:32:41.510Z,1013.23
2018-03-22T09:33:42.285Z,1013.20
2018-03-22T09:34:41.572Z,1013.17
2018-03-22T09:35:42.417Z,1013.11
2018-03-22T09:36:41.928Z,1013.17
2018-03-22T09:37:41.545Z,1013.15
2018-03-22T09:38:42.239Z,1013.18
2018-03-22T09:39:41.677Z,1013.13
2018-03-22T09:41:05.997Z,1013.15
2018-03-22T09:42:06.172Z,1013.10
2018-03-22T09:43:05.637Z,1013.16
2018-03-22T09:44:06.253Z,1013.07
2018-03-22T09:45:28.243Z,1012.98
2018-03-22T09:46:28.748Z,1012.95
2018-03-22T09:47:28.199Z,1013.00
2018-03-22T09:48:28.689Z,1012.98
2018-03-22T09:49:28.021Z,1012.96
2018-03-22T09:50:28.709Z,1012.96
2018-03-22T09:51:28.550Z,1012.98
2018-03-22T09:52:29.496Z,1012.93
2018-03-22T09:53:29.701Z,1013.00
2018-03-22T09:54:28.438Z,1012.98
2018-03-22T09:55:28.629Z,1012.98
2018-03-22T09:56:28.602Z,1013.00
2018-03-22T09:57:28.091Z,1012.97
2018-03-22T09:58:28.659Z,1012.97
2018-03-22T09:59:28.025Z,1012.96
2018-03-22T10:00:28.628Z,1012.98
2018-03-22T10:01:52.546Z,1012.99
2018-03-22T10:02:53.412Z,1012.99
2018-03-22T10:03:52.902Z,1013.01
2018-03-22T10:04:52.464Z,1013.02
2018-03-22T10:05:52.736Z,1013.06
2018-03-22T10:06:52.886Z,1013.08
2018-03-22T10:07:52.585Z,1013.03
2018-03-22T10:09:37.761Z,1013.04
2018-03-22T10:10:38.280Z,1013.06
2018-03-22T10:11:39.023Z,1013.03
2018-03-22T10:12:38.836Z,1013.04
2018-03-22T10:14:00.517Z,1013.06
2018-03-22T10:15:01.381Z,1013.06
2018-03-22T10:16:00.809Z,1013.04
2018-03-22T10:17:23.680Z,1013.04
2018-03-22T10:18:23.376Z,1012.88
2018-03-22T10:19:22.838Z,1012.92
2018-03-22T10:20:23.471Z,1012.95
2018-03-22T10:21:22.714Z,1012.92
2018-03-22T10:22:24.202Z,1012.92
2018-03-22T10:23:23.397Z,1012.98
2018-03-22T10:24:23.212Z,1012.94
2018-03-22T10:25:23.805Z,1012.93
2018-03-22T10:26:23.245Z,1012.96
2018-03-22T10:27:22.971Z,1012.93
2018-03-22T10:28:45.618Z,1012.96
2018-03-22T10:29:46.173Z,1012.96
2018-03-22T10:30:46.871Z,1012.98
2018-03-22T10:31:46.427Z,1012.93
2018-03-22T10:32:45.698Z,1012.91
2018-03-22T10:33:46.340Z,1012.90
2018-03-22T10:35:08.979Z,1012.93
2018-03-22T10:36:09.672Z,1012.91
2018-03-22T10:37:09.502Z,1012.89
2018-03-22T10:38:53.796Z,1012.87
2018-03-22T10:39:54.155Z,1012.78
2018-03-22T10:40:53.876Z,1012.82
2018-03-22T10:41:54.636Z,1012.75
2018-03-22T10:44:00.573Z,1012.77
2018-03-22T10:45:01.088Z,1012.69
2018-03-22T10:46:01.343Z,1012.75
2018-03-22T10:47:02.045Z,1012.74
2018-03-22T10:48:01.472Z,1012.69
2018-03-22T10:49:00.968Z,1012.76
2018-03-22T10:50:23.850Z,1012.73
2018-03-22T10:51:46.762Z,1012.70
2018-03-22T10:52:47.640Z,1012.69
2018-03-22T10:53:47.310Z,1012.70
2018-03-22T10:54:47.455Z,1012.69
2018-03-22T10:56:09.350Z,1012.65
2018-03-22T10:57:09.877Z,1012.64
2018-03-22T10:58:09.541Z,1012.66
2018-03-22T10:59:08.712Z,1012.64
2018-03-22T11:00:31.782Z,1012.59
2018-03-22T11:01:54.334Z,1012.61
2018-03-22T11:02:55.071Z,1012.58
2018-03-22T11:03:55.112Z,1012.58
2018-03-22T11:04:55.859Z,1012.59
2018-03-22T11:05:55.246Z,1012.62
2018-03-22T11:06:54.901Z,1012.64
2018-03-22T11:07:56.370Z,1012.61
2018-03-22T11:08:55.978Z,1012.62
2018-03-22T11:09:55.873Z,1012.64
2018-03-22T11:10:55.544Z,1012.64
2018-03-22T11:11:55.410Z,1012.61
2018-03-22T11:12:55.245Z,1012.64
2018-03-22T11:13:55.729Z,1012.60
2018-03-22T11:14:55.262Z,1012.60
2018-03-22T11:15:55.010Z,1012.54
2018-03-22T11:16:55.484Z,1012.53
2018-03-22T11:17:55.031Z,1012.48
2018-03-22T11:18:55.361Z,1012.43
2018-03-22T11:20:17.291Z,1012.52
2018-03-22T11:21:17.469Z,1012.51
2018-03-22T11:22:18.547Z,1012.46
2018-03-22T11:23:18.201Z,1012.45
2018-03-22T11:24:41.535Z,1012.46
2018-03-22T11:25:42.115Z,1012.48
2018-03-22T11:26:42.855Z,1012.41
2018-03-22T11:27:42.759Z,1012.43
2018-03-22T11:28:42.293Z,1012.40
2018-03-22T11:29:41.606Z,1012.39
2018-03-22T11:30:42.445Z,1012.35
2018-03-22T11:31:42.372Z,1012.36
2018-03-22T11:32:42.003Z,1012.38
2018-03-22T11:33:42.760Z,1012.31
2018-03-22T11:34:42.559Z,1012.29
2018-03-22T11:36:06.385Z,1012.27
2018-03-22T11:37:29.480Z,1012.27
2018-03-22T11:38:30.191Z,1012.27
2018-03-22T11:39:29.830Z,1012.27
2018-03-22T11:40:30.621Z,1012.26
2018-03-22T11:41:30.130Z,1012.22
2018-03-22T11:42:29.630Z,1012.23
2018-03-22T11:43:30.351Z,1012.23
2018-03-22T11:44:30.065Z,1012.25
2018-03-22T11:47:10.319Z,1012.26
2018-03-22T11:48:55.861Z,1012.23
2018-03-22T11:49:56.218Z,1012.25
2018-03-22T11:50:56.818Z,1012.29
2018-03-22T11:51:56.256Z,1012.24
2018-03-22T11:52:56.093Z,1012.21
2018-03-22T11:53:56.782Z,1012.20
2018-03-22T11:54:56.360Z,1012.24
2018-03-22T11:56:18.572Z,1012.24
2018-03-22T11:57:19.167Z,1012.26
2018-03-22T11:58:18.892Z,1012.25
2018-03-22T11:59:18.843Z,1012.30
2018-03-22T12:00:18.937Z,1012.20
2018-03-22T12:01:41.700Z,1012.26
2018-03-22T12:02:42.171Z,1012.28
2018-03-22T12:04:03.519Z,1012.25
2018-03-22T12:05:04.605Z,1012.23
2018-03-22T12:06:04.978Z,1012.23
2018-03-22T12:07:04.334Z,1012.27
2018-03-22T12:08:03.285Z,1012.30
2018-03-22T12:09:26.802Z,1012.26
2018-03-22T12:10:27.642Z,1012.22
2018-03-22T12:11:27.595Z,1012.22
2018-03-22T12:12:27.538Z,1012.24
2018-03-22T12:13:27.497Z,1012.22
2018-03-22T12:14:27.034Z,1012.21
2018-03-22T12:15:27.729Z,1012.21
2018-03-22T12:16:27.157Z,1012.19
2018-03-22T12:17:27.456Z,1012.20
2018-03-22T12:18:26.496Z,1012.20
2018-03-22T12:19:26.520Z,1012.23
2018-03-22T12:20:26.748Z,1012.16
2018-03-22T12:21:26.673Z,1012.18
2018-03-22T12:22:26.941Z,1012.21
2018-03-22T12:23:27.616Z,1012.22
2018-03-22T12:24:27.424Z,1012.16
2018-03-22T12:25:26.812Z,1012.19
2018-03-22T12:26:27.750Z,1012.14
2018-03-22T12:27:27.325Z,1012.18
2018-03-22T12:28:26.993Z,1012.14
2018-03-22T12:29:27.506Z,1012.15
2018-03-22T12:30:27.808Z,1012.14
2018-03-22T12:31:50.004Z,1012.16
2018-03-22T12:32:52.228Z,1012.14
2018-03-22T12:34:13.020Z,1012.15
2018-03-22T12:35:35.465Z,1012.14
2018-03-22T12:36:36.094Z,1012.11
2018-03-22T12:37:37.336Z,1012.17
2018-03-22T12:38:35.553Z,1012.16
2018-03-22T12:39:35.961Z,1012.12
2018-03-22T12:40:36.686Z,1012.09
2018-03-22T12:41:58.251Z,1012.10
2018-03-22T12:42:58.412Z,1012.09
2018-03-22T12:43:58.235Z,1012.08
2018-03-22T12:44:59.946Z,1012.08
2018-03-22T12:45:59.534Z,1012.09
2018-03-22T12:46:59.061Z,1012.09
2018-03-22T12:47:59.109Z,1012.08
2018-03-22T12:48:58.743Z,1012.14
2018-03-22T12:49:59.748Z,1012.12
2018-03-22T12:50:59.444Z,1012.13
2018-03-22T12:51:58.700Z,1012.09